Hatchechubbee, Alabama
Current Conditions -  °F | °C
As of 7:58 AM on Thursday 18 Dec 2014 (Local Time) from KLSF Reporting Station
Clear Clear  
Wind Chill: 33°   Ceiling: Unl
Heat Index: 38°   Visibility: 10mi
Dew Point: 36°   Wind: 6mph
Humidity: 94%   Direction: 320°NW
Pressure: 30.21"   Gusts: NA
Location:  32.27°N, 85.28°W
Report Text: KLSF 181358Z AUTO 32005KT 10SM CLR 03/02 A3021 RMK AO2 SLP234 T00330024
Loading
Personal Weather Stations






























Interactive Weather Map New forecast layout! Learn more

10-Day Weather Forecast

Advertisements
Track Severe Weather on mobile